sensor_id;sensor_type;location;lat;lon;timestamp;temperature;humidity
24158;DHT22;12316;50.904;4.200;2023-05-07T00:01:56;17.60;99.90
24158;DHT22;12316;50.904;4.200;2023-05-07T00:04:21;17.60;99.90
24158;DHT22;12316;50.904;4.200;2023-05-07T00:06:47;17.60;99.90
24158;DHT22;12316;50.904;4.200;2023-05-07T00:09:12;17.60;99.90
24158;DHT22;12316;50.904;4.200;2023-05-07T00:11:38;17.60;99.90
24158;DHT22;12316;50.904;4.200;2023-05-07T00:14:04;17.50;99.90
24158;DHT22;12316;50.904;4.200;2023-05-07T00:16:30;17.50;99.90
24158;DHT22;12316;50.904;4.200;2023-05-07T00:18:55;17.50;99.90
24158;DHT22;12316;50.904;4.200;2023-05-07T00:21:21;17.50;99.90
24158;DHT22;12316;50.904;4.200;2023-05-07T00:23:47;17.40;99.90
24158;DHT22;12316;50.904;4.200;2023-05-07T00:26:13;17.50;99.90
24158;DHT22;12316;50.904;4.200;2023-05-07T00:28:38;17.60;99.90
24158;DHT22;12316;50.904;4.200;2023-05-07T00:31:04;17.60;99.90
24158;DHT22;12316;50.904;4.200;2023-05-07T00:33:30;17.60;99.90
24158;DHT22;12316;50.904;4.200;2023-05-07T00:35:55;17.60;99.90
24158;DHT22;12316;50.904;4.200;2023-05-07T00:38:21;17.50;99.90
24158;DHT22;12316;50.904;4.200;2023-05-07T00:40:47;17.50;99.90
24158;DHT22;12316;50.904;4.200;2023-05-07T00:43:12;17.50;99.90
24158;DHT22;12316;50.904;4.200;2023-05-07T00:45:38;17.50;99.90
24158;DHT22;12316;50.904;4.200;2023-05-07T00:48:05;17.50;99.90
24158;DHT22;12316;50.904;4.200;2023-05-07T00:50:32;17.50;99.90
24158;DHT22;12316;50.904;4.200;2023-05-07T00:52:58;17.50;99.90
24158;DHT22;12316;50.904;4.200;2023-05-07T00:55:25;17.50;99.90
24158;DHT22;12316;50.904;4.200;2023-05-07T00:57:51;17.40;99.90
24158;DHT22;12316;50.904;4.200;2023-05-07T01:00:17;17.40;99.90
24158;DHT22;12316;50.904;4.200;2023-05-07T01:02:44;17.30;99.90
24158;DHT22;12316;50.904;4.200;2023-05-07T01:05:13;17.30;99.90
24158;DHT22;12316;50.904;4.200;2023-05-07T01:07:40;17.20;99.90
24158;DHT22;12316;50.904;4.200;2023-05-07T01:10:07;17.20;99.90
24158;DHT22;12316;50.904;4.200;2023-05-07T01:12:34;17.10;99.90
24158;DHT22;12316;50.904;4.200;2023-05-07T01:15:01;17.00;99.90
24158;DHT22;12316;50.904;4.200;2023-05-07T01:17:28;16.90;99.90
24158;DHT22;12316;50.904;4.200;2023-05-07T01:19:54;16.80;99.90
24158;DHT22;12316;50.904;4.200;2023-05-07T01:22:36;16.70;99.90
24158;DHT22;12316;50.904;4.200;2023-05-07T01:25:06;16.70;99.90
24158;DHT22;12316;50.904;4.200;2023-05-07T01:27:32;16.70;99.90
24158;DHT22;12316;50.904;4.200;2023-05-07T01:30:03;16.60;99.90
24158;DHT22;12316;50.904;4.200;2023-05-07T01:32:32;16.50;99.90
24158;DHT22;12316;50.904;4.200;2023-05-07T01:35:01;16.40;99.90
24158;DHT22;12316;50.904;4.200;2023-05-07T01:37:28;16.30;99.90
24158;DHT22;12316;50.904;4.200;2023-05-07T01:39:54;16.30;99.90
24158;DHT22;12316;50.904;4.200;2023-05-07T01:42:21;16.20;99.90
24158;DHT22;12316;50.904;4.200;2023-05-07T01:44:47;16.30;99.90
24158;DHT22;12316;50.904;4.200;2023-05-07T01:47:14;16.30;99.90
24158;DHT22;12316;50.904;4.200;2023-05-07T01:49:40;16.20;99.90
24158;DHT22;12316;50.904;4.200;2023-05-07T01:52:07;16.10;99.90
24158;DHT22;12316;50.904;4.200;2023-05-07T01:54:33;16.00;99.90
24158;DHT22;12316;50.904;4.200;2023-05-07T01:56:59;16.00;99.90
24158;DHT22;12316;50.904;4.200;2023-05-07T01:59:25;16.00;99.90
24158;DHT22;12316;50.904;4.200;2023-05-07T02:01:51;16.10;99.90
24158;DHT22;12316;50.904;4.200;2023-05-07T02:04:18;16.10;99.90
24158;DHT22;12316;50.904;4.200;2023-05-07T02:06:44;16.10;99.90
24158;DHT22;12316;50.904;4.200;2023-05-07T02:09:10;16.00;99.90
24158;DHT22;12316;50.904;4.200;2023-05-07T02:11:36;16.00;99.90
24158;DHT22;12316;50.904;4.200;2023-05-07T02:14:02;16.00;99.90
24158;DHT22;12316;50.904;4.200;2023-05-07T02:16:27;15.90;99.90
24158;DHT22;12316;50.904;4.200;2023-05-07T02:18:53;16.00;99.90
24158;DHT22;12316;50.904;4.200;2023-05-07T02:21:19;16.00;99.90
24158;DHT22;12316;50.904;4.200;2023-05-07T02:23:44;16.00;99.90
24158;DHT22;12316;50.904;4.200;2023-05-07T02:26:10;16.00;99.90
24158;DHT22;12316;50.904;4.200;2023-05-07T02:28:36;16.10;99.90
24158;DHT22;12316;50.904;4.200;2023-05-07T02:31:05;16.10;99.90
24158;DHT22;12316;50.904;4.200;2023-05-07T02:33:30;16.20;99.90
24158;DHT22;12316;50.904;4.200;2023-05-07T02:35:56;16.30;99.90
24158;DHT22;12316;50.904;4.200;2023-05-07T02:38:22;16.40;99.90
24158;DHT22;12316;50.904;4.200;2023-05-07T02:40:48;16.40;99.90
24158;DHT22;12316;50.904;4.200;2023-05-07T02:43:14;16.40;99.90
24158;DHT22;12316;50.904;4.200;2023-05-07T02:45:40;16.40;99.90
24158;DHT22;12316;50.904;4.200;2023-05-07T02:48:06;16.40;99.90
24158;DHT22;12316;50.904;4.200;2023-05-07T02:50:31;16.50;99.90
24158;DHT22;12316;50.904;4.200;2023-05-07T02:52:58;16.50;99.90
24158;DHT22;12316;50.904;4.200;2023-05-07T02:55:24;16.50;99.90
24158;DHT22;12316;50.904;4.200;2023-05-07T02:57:49;16.60;99.90
24158;DHT22;12316;50.904;4.200;2023-05-07T03:00:17;16.60;99.90
24158;DHT22;12316;50.904;4.200;2023-05-07T03:02:44;16.60;99.90
24158;DHT22;12316;50.904;4.200;2023-05-07T03:05:10;16.70;99.90
24158;DHT22;12316;50.904;4.200;2023-05-07T03:07:36;16.70;99.90
24158;DHT22;12316;50.904;4.200;2023-05-07T03:10:03;16.70;99.90
24158;DHT22;12316;50.904;4.200;2023-05-07T03:12:29;16.80;99.90
24158;DHT22;12316;50.904;4.200;2023-05-07T03:14:55;16.90;99.90
24158;DHT22;12316;50.904;4.200;2023-05-07T03:17:21;16.90;99.90
24158;DHT22;12316;50.904;4.200;2023-05-07T03:19:46;16.90;99.90
24158;DHT22;12316;50.904;4.200;2023-05-07T03:22:12;16.90;99.90
24158;DHT22;12316;50.904;4.200;2023-05-07T03:24:38;16.90;99.90
24158;DHT22;12316;50.904;4.200;2023-05-07T03:27:03;16.90;99.90
24158;DHT22;12316;50.904;4.200;2023-05-07T03:29:29;16.90;99.90
24158;DHT22;12316;50.904;4.200;2023-05-07T03:31:55;16.80;99.90
24158;DHT22;12316;50.904;4.200;2023-05-07T03:34:20;16.80;99.90
24158;DHT22;12316;50.904;4.200;2023-05-07T03:36:49;16.80;99.90
24158;DHT22;12316;50.904;4.200;2023-05-07T03:39:15;16.90;99.90
24158;DHT22;12316;50.904;4.200;2023-05-07T03:41:41;17.00;99.90
24158;DHT22;12316;50.904;4.200;2023-05-07T03:44:06;17.00;99.90
24158;DHT22;12316;50.904;4.200;2023-05-07T03:46:33;17.00;99.90
24158;DHT22;12316;50.904;4.200;2023-05-07T03:48:59;17.10;99.90
24158;DHT22;12316;50.904;4.200;2023-05-07T03:51:25;17.00;99.90
24158;DHT22;12316;50.904;4.200;2023-05-07T03:53:51;17.00;99.90
24158;DHT22;12316;50.904;4.200;2023-05-07T03:56:19;17.00;99.90
24158;DHT22;12316;50.904;4.200;2023-05-07T03:58:47;17.00;99.90
24158;DHT22;12316;50.904;4.200;2023-05-07T04:01:12;17.00;99.90
24158;DHT22;12316;50.904;4.200;2023-05-07T04:03:38;17.00;99.90
24158;DHT22;12316;50.904;4.200;2023-05-07T04:06:04;17.00;99.90
24158;DHT22;12316;50.904;4.200;2023-05-07T04:08:29;17.00;99.90
24158;DHT22;12316;50.904;4.200;2023-05-07T04:10:56;17.00;99.90
24158;DHT22;12316;50.904;4.200;2023-05-07T04:13:22;17.00;99.90
24158;DHT22;12316;50.904;4.200;2023-05-07T04:15:47;17.00;99.90
24158;DHT22;12316;50.904;4.200;2023-05-07T04:18:14;17.00;99.90
24158;DHT22;12316;50.904;4.200;2023-05-07T04:20:40;17.10;99.90
24158;DHT22;12316;50.904;4.200;2023-05-07T04:23:06;17.10;99.90
24158;DHT22;12316;50.904;4.200;2023-05-07T04:25:32;17.10;99.90
24158;DHT22;12316;50.904;4.200;2023-05-07T04:27:58;17.10;99.90
24158;DHT22;12316;50.904;4.200;2023-05-07T04:30:25;17.20;99.90
24158;DHT22;12316;50.904;4.200;2023-05-07T04:32:51;17.20;99.90
24158;DHT22;12316;50.904;4.200;2023-05-07T04:35:17;17.20;99.90
24158;DHT22;12316;50.904;4.200;2023-05-07T04:37:43;17.20;99.90
24158;DHT22;12316;50.904;4.200;2023-05-07T04:40:09;17.10;99.90
24158;DHT22;12316;50.904;4.200;2023-05-07T04:42:35;17.10;99.90
24158;DHT22;12316;50.904;4.200;2023-05-07T04:45:02;17.10;99.90
24158;DHT22;12316;50.904;4.200;2023-05-07T04:47:27;17.10;99.90
24158;DHT22;12316;50.904;4.200;2023-05-07T04:49:53;17.10;99.90
24158;DHT22;12316;50.904;4.200;2023-05-07T04:52:19;17.20;99.90
24158;DHT22;12316;50.904;4.200;2023-05-07T04:54:44;17.20;99.90
24158;DHT22;12316;50.904;4.200;2023-05-07T04:57:10;17.20;99.90
24158;DHT22;12316;50.904;4.200;2023-05-07T04:59:36;17.30;99.90
24158;DHT22;12316;50.904;4.200;2023-05-07T05:02:02;17.40;99.90
24158;DHT22;12316;50.904;4.200;2023-05-07T05:04:29;17.40;99.90
24158;DHT22;12316;50.904;4.200;2023-05-07T05:06:55;17.40;99.90
24158;DHT22;12316;50.904;4.200;2023-05-07T05:09:20;17.50;99.90
24158;DHT22;12316;50.904;4.200;2023-05-07T05:11:46;17.60;99.90
24158;DHT22;12316;50.904;4.200;2023-05-07T05:14:12;17.60;99.90
24158;DHT22;12316;50.904;4.200;2023-05-07T05:16:37;17.80;99.90
24158;DHT22;12316;50.904;4.200;2023-05-07T05:19:03;17.90;99.90
24158;DHT22;12316;50.904;4.200;2023-05-07T05:21:28;18.00;99.90
24158;DHT22;12316;50.904;4.200;2023-05-07T05:23:54;18.10;99.90
24158;DHT22;12316;50.904;4.200;2023-05-07T05:26:20;18.20;99.90
24158;DHT22;12316;50.904;4.200;2023-05-07T05:28:46;18.30;99.90
24158;DHT22;12316;50.904;4.200;2023-05-07T05:31:12;18.40;99.90
24158;DHT22;12316;50.904;4.200;2023-05-07T05:33:39;18.40;99.90
24158;DHT22;12316;50.904;4.200;2023-05-07T05:36:05;18.50;99.90
24158;DHT22;12316;50.904;4.200;2023-05-07T05:38:31;18.60;99.90
24158;DHT22;12316;50.904;4.200;2023-05-07T05:40:57;18.70;99.90
24158;DHT22;12316;50.904;4.200;2023-05-07T05:43:23;18.70;99.90
24158;DHT22;12316;50.904;4.200;2023-05-07T05:45:49;18.80;99.90
24158;DHT22;12316;50.904;4.200;2023-05-07T05:48:15;18.80;99.90
24158;DHT22;12316;50.904;4.200;2023-05-07T05:50:42;18.80;99.90
24158;DHT22;12316;50.904;4.200;2023-05-07T05:53:07;18.80;99.90
24158;DHT22;12316;50.904;4.200;2023-05-07T05:55:33;18.70;99.90
24158;DHT22;12316;50.904;4.200;2023-05-07T05:58:00;18.70;99.90
24158;DHT22;12316;50.904;4.200;2023-05-07T06:00:26;18.60;99.90
24158;DHT22;12316;50.904;4.200;2023-05-07T06:02:52;18.60;99.90
24158;DHT22;12316;50.904;4.200;2023-05-07T06:05:17;18.60;99.90
24158;DHT22;12316;50.904;4.200;2023-05-07T06:07:43;18.60;99.90
24158;DHT22;12316;50.904;4.200;2023-05-07T06:10:09;18.60;99.90
24158;DHT22;12316;50.904;4.200;2023-05-07T06:12:34;18.60;99.90
24158;DHT22;12316;50.904;4.200;2023-05-07T06:15:00;18.60;99.90
24158;DHT22;12316;50.904;4.200;2023-05-07T06:17:27;18.60;99.90
24158;DHT22;12316;50.904;4.200;2023-05-07T06:19:52;18.60;99.90
24158;DHT22;12316;50.904;4.200;2023-05-07T06:22:18;18.60;99.90
24158;DHT22;12316;50.904;4.200;2023-05-07T06:24:44;18.60;99.90
24158;DHT22;12316;50.904;4.200;2023-05-07T06:27:10;18.60;99.90
24158;DHT22;12316;50.904;4.200;2023-05-07T06:29:36;18.50;99.90
24158;DHT22;12316;50.904;4.200;2023-05-07T06:32:12;18.50;99.90
24158;DHT22;12316;50.904;4.200;2023-05-07T06:34:39;18.40;99.90
24158;DHT22;12316;50.904;4.200;2023-05-07T06:37:06;18.40;99.90
24158;DHT22;12316;50.904;4.200;2023-05-07T06:39:32;18.40;99.90
24158;DHT22;12316;50.904;4.200;2023-05-07T06:41:59;18.40;99.90
24158;DHT22;12316;50.904;4.200;2023-05-07T06:44:24;18.30;99.90
24158;DHT22;12316;50.904;4.200;2023-05-07T06:46:50;18.30;99.90
24158;DHT22;12316;50.904;4.200;2023-05-07T06:49:16;18.20;99.90
24158;DHT22;12316;50.904;4.200;2023-05-07T06:51:41;18.20;99.90
24158;DHT22;12316;50.904;4.200;2023-05-07T06:54:07;18.20;99.90
24158;DHT22;12316;50.904;4.200;2023-05-07T06:56:33;18.20;99.90
24158;DHT22;12316;50.904;4.200;2023-05-07T06:59:00;18.20;99.90
24158;DHT22;12316;50.904;4.200;2023-05-07T07:01:26;18.20;99.90
24158;DHT22;12316;50.904;4.200;2023-05-07T07:03:52;18.20;99.90
24158;DHT22;12316;50.904;4.200;2023-05-07T07:06:17;18.30;99.90
24158;DHT22;12316;50.904;4.200;2023-05-07T07:08:43;18.30;99.90
24158;DHT22;12316;50.904;4.200;2023-05-07T07:11:09;18.40;99.90
24158;DHT22;12316;50.904;4.200;2023-05-07T07:13:35;18.40;99.90
24158;DHT22;12316;50.904;4.200;2023-05-07T07:16:01;18.40;99.90
24158;DHT22;12316;50.904;4.200;2023-05-07T07:18:27;18.60;99.90
24158;DHT22;12316;50.904;4.200;2023-05-07T07:20:53;18.70;99.90
24158;DHT22;12316;50.904;4.200;2023-05-07T07:23:18;18.90;99.90
24158;DHT22;12316;50.904;4.200;2023-05-07T07:25:44;19.00;99.90
24158;DHT22;12316;50.904;4.200;2023-05-07T07:28:10;19.10;99.90
24158;DHT22;12316;50.904;4.200;2023-05-07T07:30:37;19.20;99.90
24158;DHT22;12316;50.904;4.200;2023-05-07T07:33:02;19.30;99.90
24158;DHT22;12316;50.904;4.200;2023-05-07T07:35:37;19.30;99.90
24158;DHT22;12316;50.904;4.200;2023-05-07T07:38:03;19.40;99.90
24158;DHT22;12316;50.904;4.200;2023-05-07T07:40:29;19.40;99.90
24158;DHT22;12316;50.904;4.200;2023-05-07T07:42:56;19.50;99.90
24158;DHT22;12316;50.904;4.200;2023-05-07T07:45:22;19.50;99.90
24158;DHT22;12316;50.904;4.200;2023-05-07T07:47:47;19.50;99.90
24158;DHT22;12316;50.904;4.200;2023-05-07T07:50:13;19.60;99.90
24158;DHT22;12316;50.904;4.200;2023-05-07T07:52:39;19.80;99.90
24158;DHT22;12316;50.904;4.200;2023-05-07T07:55:05;19.90;99.90
24158;DHT22;12316;50.904;4.200;2023-05-07T07:57:30;20.00;99.90
24158;DHT22;12316;50.904;4.200;2023-05-07T07:59:56;20.10;99.90
24158;DHT22;12316;50.904;4.200;2023-05-07T08:02:22;20.10;99.90
24158;DHT22;12316;50.904;4.200;2023-05-07T08:04:47;20.00;99.90
24158;DHT22;12316;50.904;4.200;2023-05-07T08:07:13;20.10;99.90
24158;DHT22;12316;50.904;4.200;2023-05-07T08:09:39;20.10;99.90
24158;DHT22;12316;50.904;4.200;2023-05-07T08:12:06;20.20;99.90
24158;DHT22;12316;50.904;4.200;2023-05-07T08:14:32;20.20;99.90
24158;DHT22;12316;50.904;4.200;2023-05-07T08:16:58;20.20;99.90
24158;DHT22;12316;50.904;4.200;2023-05-07T08:19:24;20.20;99.90
24158;DHT22;12316;50.904;4.200;2023-05-07T08:21:50;20.30;99.90
24158;DHT22;12316;50.904;4.200;2023-05-07T08:24:16;20.30;99.90
24158;DHT22;12316;50.904;4.200;2023-05-07T08:26:42;20.30;99.90
24158;DHT22;12316;50.904;4.200;2023-05-07T08:29:08;20.30;99.90
24158;DHT22;12316;50.904;4.200;2023-05-07T08:31:34;20.40;99.90
24158;DHT22;12316;50.904;4.200;2023-05-07T08:34:00;20.40;99.90
24158;DHT22;12316;50.904;4.200;2023-05-07T08:36:25;20.50;99.90
24158;DHT22;12316;50.904;4.200;2023-05-07T08:38:52;20.50;99.90
24158;DHT22;12316;50.904;4.200;2023-05-07T08:41:18;20.50;99.90
24158;DHT22;12316;50.904;4.200;2023-05-07T08:43:49;20.50;99.90
24158;DHT22;12316;50.904;4.200;2023-05-07T08:46:20;20.50;99.90
24158;DHT22;12316;50.904;4.200;2023-05-07T08:48:49;20.60;99.90
24158;DHT22;12316;50.904;4.200;2023-05-07T08:51:22;20.60;99.90
24158;DHT22;12316;50.904;4.200;2023-05-07T08:53:49;20.60;99.90
24158;DHT22;12316;50.904;4.200;2023-05-07T08:56:16;20.60;99.90
24158;DHT22;12316;50.904;4.200;2023-05-07T08:58:45;20.60;99.90
24158;DHT22;12316;50.904;4.200;2023-05-07T09:01:15;20.60;99.90
24158;DHT22;12316;50.904;4.200;2023-05-07T09:03:45;20.70;99.90
24158;DHT22;12316;50.904;4.200;2023-05-07T09:06:12;20.70;99.90
24158;DHT22;12316;50.904;4.200;2023-05-07T09:08:37;20.80;99.90
24158;DHT22;12316;50.904;4.200;2023-05-07T09:11:03;20.90;99.90
24158;DHT22;12316;50.904;4.200;2023-05-07T09:13:29;20.90;99.90
24158;DHT22;12316;50.904;4.200;2023-05-07T09:15:55;21.00;99.90
24158;DHT22;12316;50.904;4.200;2023-05-07T09:18:21;21.00;99.90
24158;DHT22;12316;50.904;4.200;2023-05-07T09:20:48;20.90;99.90
24158;DHT22;12316;50.904;4.200;2023-05-07T09:23:14;20.90;99.90
24158;DHT22;12316;50.904;4.200;2023-05-07T09:25:40;21.00;99.90
24158;DHT22;12316;50.904;4.200;2023-05-07T09:28:06;21.00;99.90
24158;DHT22;12316;50.904;4.200;2023-05-07T09:30:33;21.10;99.90
24158;DHT22;12316;50.904;4.200;2023-05-07T09:33:01;21.10;99.90
24158;DHT22;12316;50.904;4.200;2023-05-07T09:35:27;21.20;99.90
24158;DHT22;12316;50.904;4.200;2023-05-07T09:37:54;21.30;99.90
24158;DHT22;12316;50.904;4.200;2023-05-07T09:40:21;21.40;99.90
24158;DHT22;12316;50.904;4.200;2023-05-07T09:42:48;21.50;99.90
24158;DHT22;12316;50.904;4.200;2023-05-07T09:45:21;21.50;99.90
24158;DHT22;12316;50.904;4.200;2023-05-07T09:47:47;21.60;99.90
24158;DHT22;12316;50.904;4.200;2023-05-07T09:50:15;21.80;99.90
24158;DHT22;12316;50.904;4.200;2023-05-07T09:52:42;21.90;99.90
24158;DHT22;12316;50.904;4.200;2023-05-07T09:55:10;22.00;99.90
24158;DHT22;12316;50.904;4.200;2023-05-07T09:57:36;22.10;99.90
24158;DHT22;12316;50.904;4.200;2023-05-07T10:00:04;22.10;99.90
24158;DHT22;12316;50.904;4.200;2023-05-07T10:02:30;22.10;99.90
24158;DHT22;12316;50.904;4.200;2023-05-07T10:04:57;22.10;99.90
24158;DHT22;12316;50.904;4.200;2023-05-07T10:07:25;22.10;99.90
24158;DHT22;12316;50.904;4.200;2023-05-07T10:09:52;22.10;99.90
24158;DHT22;12316;50.904;4.200;2023-05-07T10:12:18;22.00;99.90
24158;DHT22;12316;50.904;4.200;2023-05-07T10:14:45;21.80;99.90
24158;DHT22;12316;50.904;4.200;2023-05-07T10:17:12;21.60;99.90
24158;DHT22;12316;50.904;4.200;2023-05-07T10:19:39;21.60;99.90
24158;DHT22;12316;50.904;4.200;2023-05-07T10:22:06;21.70;99.90
24158;DHT22;12316;50.904;4.200;2023-05-07T10:24:34;21.80;99.90
24158;DHT22;12316;50.904;4.200;2023-05-07T10:27:04;22.00;99.90
24158;DHT22;12316;50.904;4.200;2023-05-07T10:30:20;22.10;99.90
24158;DHT22;12316;50.904;4.200;2023-05-07T10:35:06;22.20;99.90
24158;DHT22;12316;50.904;4.200;2023-05-07T10:37:34;22.10;99.90
24158;DHT22;12316;50.904;4.200;2023-05-07T10:40:01;22.10;99.90
24158;DHT22;12316;50.904;4.200;2023-05-07T10:42:26;22.20;99.90
24158;DHT22;12316;50.904;4.200;2023-05-07T10:44:52;22.30;99.90
24158;DHT22;12316;50.904;4.200;2023-05-07T10:47:18;22.30;99.90
24158;DHT22;12316;50.904;4.200;2023-05-07T10:54:42;22.20;99.90
24158;DHT22;12316;50.904;4.200;2023-05-07T10:57:36;22.30;99.90
24158;DHT22;12316;50.904;4.200;2023-05-07T11:05:32;22.20;99.90
24158;DHT22;12316;50.904;4.200;2023-05-07T11:08:02;22.40;99.90
24158;DHT22;12316;50.904;4.200;2023-05-07T11:13:13;22.70;99.90
24158;DHT22;12316;50.904;4.200;2023-05-07T11:15:41;22.70;99.90
24158;DHT22;12316;50.904;4.200;2023-05-07T11:18:09;22.90;99.90
24158;DHT22;12316;50.904;4.200;2023-05-07T11:20:51;22.90;99.90
24158;DHT22;12316;50.904;4.200;2023-05-07T11:26:07;23.00;99.90
24158;DHT22;12316;50.904;4.200;2023-05-07T11:28:43;23.10;99.90
24158;DHT22;12316;50.904;4.200;2023-05-07T11:31:10;23.30;99.90
24158;DHT22;12316;50.904;4.200;2023-05-07T11:33:37;23.50;99.90
24158;DHT22;12316;50.904;4.200;2023-05-07T11:36:04;23.50;99.90
24158;DHT22;12316;50.904;4.200;2023-05-07T11:38:35;23.70;99.90
24158;DHT22;12316;50.904;4.200;2023-05-07T11:41:00;23.80;99.90
24158;DHT22;12316;50.904;4.200;2023-05-07T11:43:27;23.80;99.90
24158;DHT22;12316;50.904;4.200;2023-05-07T11:45:53;23.80;99.90
24158;DHT22;12316;50.904;4.200;2023-05-07T11:48:21;23.70;99.90
24158;DHT22;12316;50.904;4.200;2023-05-07T11:51:13;23.80;99.90
24158;DHT22;12316;50.904;4.200;2023-05-07T11:53:44;23.70;99.90
24158;DHT22;12316;50.904;4.200;2023-05-07T11:56:14;23.60;99.90
24158;DHT22;12316;50.904;4.200;2023-05-07T11:58:41;23.70;99.90
24158;DHT22;12316;50.904;4.200;2023-05-07T12:01:09;23.90;99.90
24158;DHT22;12316;50.904;4.200;2023-05-07T12:03:40;24.00;99.90
24158;DHT22;12316;50.904;4.200;2023-05-07T12:06:16;24.10;99.90
24158;DHT22;12316;50.904;4.200;2023-05-07T12:08:43;24.40;99.90
24158;DHT22;12316;50.904;4.200;2023-05-07T12:11:13;24.60;99.90
24158;DHT22;12316;50.904;4.200;2023-05-07T12:13:39;24.80;99.90
24158;DHT22;12316;50.904;4.200;2023-05-07T12:16:05;24.90;99.90
24158;DHT22;12316;50.904;4.200;2023-05-07T12:18:32;24.80;99.90
24158;DHT22;12316;50.904;4.200;2023-05-07T12:20:59;24.80;99.90
24158;DHT22;12316;50.904;4.200;2023-05-07T12:23:24;24.80;99.90
24158;DHT22;12316;50.904;4.200;2023-05-07T12:25:50;24.80;99.90
24158;DHT22;12316;50.904;4.200;2023-05-07T12:28:18;24.80;99.90
24158;DHT22;12316;50.904;4.200;2023-05-07T12:30:46;24.80;99.90
24158;DHT22;12316;50.904;4.200;2023-05-07T12:33:15;24.80;99.90
24158;DHT22;12316;50.904;4.200;2023-05-07T12:35:42;24.60;99.90
24158;DHT22;12316;50.904;4.200;2023-05-07T12:38:11;24.50;99.90
24158;DHT22;12316;50.904;4.200;2023-05-07T12:40:42;24.30;99.90
24158;DHT22;12316;50.904;4.200;2023-05-07T12:43:15;24.30;99.90
24158;DHT22;12316;50.904;4.200;2023-05-07T12:45:42;24.20;99.90
24158;DHT22;12316;50.904;4.200;2023-05-07T12:48:10;24.30;99.90
24158;DHT22;12316;50.904;4.200;2023-05-07T12:50:36;24.30;99.90
24158;DHT22;12316;50.904;4.200;2023-05-07T12:53:04;24.30;99.90
24158;DHT22;12316;50.904;4.200;2023-05-07T12:55:45;24.40;99.90
24158;DHT22;12316;50.904;4.200;2023-05-07T12:58:28;24.40;99.90
24158;DHT22;12316;50.904;4.200;2023-05-07T13:00:55;24.60;99.90
24158;DHT22;12316;50.904;4.200;2023-05-07T13:03:24;24.70;99.90
24158;DHT22;12316;50.904;4.200;2023-05-07T13:05:50;24.90;99.90
24158;DHT22;12316;50.904;4.200;2023-05-07T13:08:30;25.00;99.90
24158;DHT22;12316;50.904;4.200;2023-05-07T13:11:01;25.10;99.90
24158;DHT22;12316;50.904;4.200;2023-05-07T13:13:34;25.10;99.90
24158;DHT22;12316;50.904;4.200;2023-05-07T13:16:01;25.20;99.90
24158;DHT22;12316;50.904;4.200;2023-05-07T13:18:28;25.20;99.90
24158;DHT22;12316;50.904;4.200;2023-05-07T13:20:54;25.30;99.90
24158;DHT22;12316;50.904;4.200;2023-05-07T13:23:20;25.30;99.90
24158;DHT22;12316;50.904;4.200;2023-05-07T13:25:46;25.30;99.90
24158;DHT22;12316;50.904;4.200;2023-05-07T13:28:11;25.30;99.90
24158;DHT22;12316;50.904;4.200;2023-05-07T13:30:37;25.20;99.90
24158;DHT22;12316;50.904;4.200;2023-05-07T13:33:03;25.20;99.90
24158;DHT22;12316;50.904;4.200;2023-05-07T13:35:29;25.30;99.90
24158;DHT22;12316;50.904;4.200;2023-05-07T13:37:55;25.20;99.90
24158;DHT22;12316;50.904;4.200;2023-05-07T13:40:21;25.20;99.90
24158;DHT22;12316;50.904;4.200;2023-05-07T13:42:48;25.00;99.90
24158;DHT22;12316;50.904;4.200;2023-05-07T13:45:13;24.70;99.90
24158;DHT22;12316;50.904;4.200;2023-05-07T13:47:42;24.60;99.90
24158;DHT22;12316;50.904;4.200;2023-05-07T13:50:11;24.60;99.90
24158;DHT22;12316;50.904;4.200;2023-05-07T13:52:40;24.60;99.90
24158;DHT22;12316;50.904;4.200;2023-05-07T13:55:06;24.60;99.90
24158;DHT22;12316;50.904;4.200;2023-05-07T13:57:32;24.60;99.90
24158;DHT22;12316;50.904;4.200;2023-05-07T13:59:58;24.50;99.90
24158;DHT22;12316;50.904;4.200;2023-05-07T14:02:23;24.40;99.90
24158;DHT22;12316;50.904;4.200;2023-05-07T14:04:49;24.20;99.90
24158;DHT22;12316;50.904;4.200;2023-05-07T14:07:15;24.10;99.90
24158;DHT22;12316;50.904;4.200;2023-05-07T14:09:40;23.90;99.90
24158;DHT22;12316;50.904;4.200;2023-05-07T14:12:07;23.80;99.90
24158;DHT22;12316;50.904;4.200;2023-05-07T14:14:33;23.70;99.90
24158;DHT22;12316;50.904;4.200;2023-05-07T14:16:58;23.80;99.90
24158;DHT22;12316;50.904;4.200;2023-05-07T14:19:25;23.80;99.90
24158;DHT22;12316;50.904;4.200;2023-05-07T14:21:51;24.00;99.90
24158;DHT22;12316;50.904;4.200;2023-05-07T14:24:16;24.00;99.90
24158;DHT22;12316;50.904;4.200;2023-05-07T14:26:42;24.10;99.90
24158;DHT22;12316;50.904;4.200;2023-05-07T14:29:08;24.20;99.90
24158;DHT22;12316;50.904;4.200;2023-05-07T14:31:33;24.30;99.90
24158;DHT22;12316;50.904;4.200;2023-05-07T14:33:59;24.30;99.90
24158;DHT22;12316;50.904;4.200;2023-05-07T14:36:25;24.40;99.90
24158;DHT22;12316;50.904;4.200;2023-05-07T14:38:55;24.40;99.90
24158;DHT22;12316;50.904;4.200;2023-05-07T14:41:24;24.40;99.90
24158;DHT22;12316;50.904;4.200;2023-05-07T14:43:50;24.40;99.90
24158;DHT22;12316;50.904;4.200;2023-05-07T14:46:17;24.40;99.90
24158;DHT22;12316;50.904;4.200;2023-05-07T14:48:46;24.40;99.90
24158;DHT22;12316;50.904;4.200;2023-05-07T14:51:12;24.30;99.90
24158;DHT22;12316;50.904;4.200;2023-05-07T14:53:40;24.30;99.90
24158;DHT22;12316;50.904;4.200;2023-05-07T14:56:06;24.30;99.90
24158;DHT22;12316;50.904;4.200;2023-05-07T14:58:31;24.20;99.90
24158;DHT22;12316;50.904;4.200;2023-05-07T15:00:58;24.30;99.90
24158;DHT22;12316;50.904;4.200;2023-05-07T15:03:24;24.40;99.90
24158;DHT22;12316;50.904;4.200;2023-05-07T15:05:50;24.50;99.90
24158;DHT22;12316;50.904;4.200;2023-05-07T15:08:17;24.60;99.90
24158;DHT22;12316;50.904;4.200;2023-05-07T15:10:43;24.70;99.90
24158;DHT22;12316;50.904;4.200;2023-05-07T15:13:12;24.70;99.90
24158;DHT22;12316;50.904;4.200;2023-05-07T15:15:42;24.70;99.90
24158;DHT22;12316;50.904;4.200;2023-05-07T15:18:08;24.70;99.90
24158;DHT22;12316;50.904;4.200;2023-05-07T15:20:35;24.80;99.90
24158;DHT22;12316;50.904;4.200;2023-05-07T15:23:01;24.70;99.90
24158;DHT22;12316;50.904;4.200;2023-05-07T15:25:27;24.60;99.90
24158;DHT22;12316;50.904;4.200;2023-05-07T15:27:53;24.60;99.90
24158;DHT22;12316;50.904;4.200;2023-05-07T15:30:19;24.70;99.90
24158;DHT22;12316;50.904;4.200;2023-05-07T15:32:45;24.70;99.90
24158;DHT22;12316;50.904;4.200;2023-05-07T15:35:11;24.70;99.90
24158;DHT22;12316;50.904;4.200;2023-05-07T15:37:37;24.60;99.90
24158;DHT22;12316;50.904;4.200;2023-05-07T15:40:03;24.60;99.90
24158;DHT22;12316;50.904;4.200;2023-05-07T15:42:30;24.50;99.90
24158;DHT22;12316;50.904;4.200;2023-05-07T15:44:56;24.40;99.90
24158;DHT22;12316;50.904;4.200;2023-05-07T15:47:21;24.30;99.90